Time,TemperatureF,DewpointF,PressureIn,WindDirection,WindDirectionDegrees,WindSpeedMPH,WindSpeedGustMPH,Humidity,HourlyPrecipIn,Conditions,Clouds,dailyrainin,SoftwareType,DateUTC
2013-09-17 00:02:00,48.7,47.0,30.32,NE,48,0.0,1.0,93,0.00,,,0.18,weatherlink.com 1.10,2013-09-17 04:02:00,
2013-09-17 00:20:00,48.4,47.0,30.32,NNE,18,2.0,2.0,94,0.00,,,0.00,weatherlink.com 1.10,2013-09-17 04:20:00,
2013-09-17 00:38:00,48.2,46.0,30.32,NE,39,0.0,3.0,92,0.00,,,0.00,weatherlink.com 1.10,2013-09-17 04:38:00,
2013-09-17 00:56:00,47.7,45.0,30.33,NE,38,0.0,1.0,91,0.00,,,0.00,weatherlink.com 1.10,2013-09-17 04:56:00,
2013-09-17 01:14:00,47.2,45.0,30.33,NE,36,0.0,2.0,91,0.00,,,0.00,weatherlink.com 1.10,2013-09-17 05:14:00,
2013-09-17 01:31:00,46.7,44.0,30.34,East,85,0.0,1.0,92,0.00,,,0.00,weatherlink.com 1.10,2013-09-17 05:31:00,
2013-09-17 01:50:00,46.3,44.0,30.34,ENE,57,1.0,4.0,92,0.00,,,0.00,weatherlink.com 1.10,2013-09-17 05:50:00,
2013-09-17 02:07:00,46.2,44.0,30.34,NE,41,1.0,3.0,92,0.00,,,0.00,weatherlink.com 1.10,2013-09-17 06:07:00,
2013-09-17 02:25:00,45.9,44.0,30.34,NE,42,0.0,2.0,92,0.00,,,0.00,weatherlink.com 1.10,2013-09-17 06:25:00,
2013-09-17 02:42:00,45.3,43.0,30.34,NE,52,0.0,4.0,93,0.00,,,0.00,weatherlink.com 1.10,2013-09-17 06:42:00,
2013-09-17 03:01:00,44.7,43.0,30.35,NE,40,0.0,1.0,94,0.00,,,0.00,weatherlink.com 1.10,2013-09-17 07:01:00,
2013-09-17 03:19:00,44.4,43.0,30.35,NE,34,0.0,1.0,94,0.00,,,0.00,weatherlink.com 1.10,2013-09-17 07:19:00,
2013-09-17 03:36:00,44.1,42.0,30.36,NE,36,0.0,2.0,94,0.00,,,0.00,weatherlink.com 1.10,2013-09-17 07:36:00,
2013-09-17 03:54:00,43.5,42.0,30.36,NE,43,0.0,2.0,95,0.00,,,0.00,weatherlink.com 1.10,2013-09-17 07:54:00,
2013-09-17 04:12:00,43.1,42.0,30.36,NE,51,0.0,2.0,95,0.00,,,0.00,weatherlink.com 1.10,2013-09-17 08:12:00,
2013-09-17 04:30:00,42.8,41.0,30.36,NE,51,0.0,3.0,95,0.00,,,0.00,weatherlink.com 1.10,2013-09-17 08:30:00,
2013-09-17 04:47:00,42.5,41.0,30.37,NE,48,0.0,5.0,95,0.00,,,0.00,weatherlink.com 1.10,2013-09-17 08:47:00,
2013-09-17 05:05:00,42.3,41.0,30.37,NNE,26,1.0,4.0,94,0.00,,,0.00,weatherlink.com 1.10,2013-09-17 09:05:00,
2013-09-17 05:23:00,42.0,40.0,30.38,NE,48,1.0,8.0,94,0.00,,,0.00,weatherlink.com 1.10,2013-09-17 09:23:00,
2013-09-17 05:41:00,41.5,40.0,30.39,NNW,345,1.0,5.0,94,0.00,,,0.00,weatherlink.com 1.10,2013-09-17 09:41:00,
2013-09-17 05:59:00,40.9,39.0,30.39,NE,50,0.0,1.0,94,0.00,,,0.00,weatherlink.com 1.10,2013-09-17 09:59:00,
2013-09-17 06:17:00,40.3,39.0,30.39,ENE,63,0.0,4.0,94,0.00,,,0.00,weatherlink.com 1.10,2013-09-17 10:17:00,
2013-09-17 06:35:00,40.1,38.0,30.40,NE,53,0.0,4.0,92,0.00,,,0.00,weatherlink.com 1.10,2013-09-17 10:35:00,
2013-09-17 06:52:00,39.6,37.0,30.41,SE,124,0.0,2.0,92,0.00,,,0.00,weatherlink.com 1.10,2013-09-17 10:52:00,
2013-09-17 07:10:00,39.5,37.0,30.41,East,83,0.0,7.0,92,0.00,,,0.00,weatherlink.com 1.10,2013-09-17 11:10:00,
2013-09-17 07:27:00,39.9,37.0,30.41,ENE,72,0.0,8.0,91,0.00,,,0.00,weatherlink.com 1.10,2013-09-17 11:27:00,
2013-09-17 07:46:00,40.1,37.0,30.42,ENE,58,1.0,6.0,90,0.00,,,0.00,weatherlink.com 1.10,2013-09-17 11:46:00,
2013-09-17 08:04:00,40.6,38.0,30.43,SE,124,0.0,5.0,89,0.00,,,0.00,weatherlink.com 1.10,2013-09-17 12:04:00,
2013-09-17 08:21:00,41.3,38.0,30.43,NNE,13,0.0,8.0,89,0.00,,,0.00,weatherlink.com 1.10,2013-09-17 12:21:00,
2013-09-17 08:40:00,42.3,39.0,30.42,NE,54,2.0,11.0,87,0.00,,,0.00,weatherlink.com 1.10,2013-09-17 12:40:00,
2013-09-17 08:57:00,43.0,39.0,30.43,NW,314,2.0,12.0,85,0.00,,,0.00,weatherlink.com 1.10,2013-09-17 12:57:00,
2013-09-17 09:15:00,44.5,39.0,30.44,ESE,115,0.0,3.0,82,0.00,,,0.00,weatherlink.com 1.10,2013-09-17 13:15:00,
2013-09-17 09:33:00,46.3,40.0,30.45,ESE,102,1.0,5.0,80,0.00,,,0.00,weatherlink.com 1.10,2013-09-17 13:33:00,
2013-09-17 09:51:00,48.2,41.0,30.45,ENE,62,1.0,9.0,77,0.00,,,0.00,weatherlink.com 1.10,2013-09-17 13:51:00,
2013-09-17 10:09:00,49.5,42.0,30.45,NE,35,1.0,5.0,74,0.00,,,0.00,weatherlink.com 1.10,2013-09-17 14:09:00,
2013-09-17 10:27:00,50.5,41.0,30.45,ESE,114,1.0,5.0,70,0.00,,,0.00,weatherlink.com 1.10,2013-09-17 14:27:00,
2013-09-17 10:45:00,51.7,41.0,30.44,NNE,22,0.0,7.0,67,0.00,,,0.00,weatherlink.com 1.10,2013-09-17 14:45:00,
2013-09-17 11:02:00,52.9,41.0,30.44,NNE,29,0.0,5.0,65,0.00,,,0.00,weatherlink.com 1.10,2013-09-17 15:02:00,
2013-09-17 11:20:00,54.3,42.0,30.45,NNE,29,0.0,5.0,62,0.00,,,0.00,weatherlink.com 1.10,2013-09-17 15:20:00,
2013-09-17 11:37:00,55.5,39.0,30.45,ESE,110,2.0,5.0,53,0.00,,,0.00,weatherlink.com 1.10,2013-09-17 15:37:00,
2013-09-17 11:56:00,55.9,41.0,30.44,NE,46,0.0,5.0,58,0.00,,,0.00,weatherlink.com 1.10,2013-09-17 15:56:00,
2013-09-17 12:14:00,56.1,39.0,30.44,NNE,25,1.0,5.0,53,0.00,,,0.00,weatherlink.com 1.10,2013-09-17 16:14:00,
2013-09-17 12:31:00,56.9,39.0,30.43,NNE,33,1.0,5.0,51,0.00,,,0.00,weatherlink.com 1.10,2013-09-17 16:31:00,
2013-09-17 12:50:00,58.6,41.0,30.43,NE,44,0.0,6.0,52,0.00,,,0.00,weatherlink.com 1.10,2013-09-17 16:50:00,
2013-09-17 13:07:00,58.8,40.0,30.43,ESE,112,1.0,6.0,50,0.00,,,0.00,weatherlink.com 1.10,2013-09-17 17:07:00,
2013-09-17 13:25:00,59.9,41.0,30.42,NE,38,1.0,4.0,49,0.00,,,0.00,weatherlink.com 1.10,2013-09-17 17:25:00,
2013-09-17 13:43:00,60.8,40.0,30.41,SW,223,1.0,4.0,46,0.00,,,0.00,weatherlink.com 1.10,2013-09-17 17:43:00,
2013-09-17 14:01:00,60.5,37.0,30.41,SSE,154,2.0,7.0,42,0.00,,,0.00,weatherlink.com 1.10,2013-09-17 18:01:00,
2013-09-17 14:19:00,60.8,39.0,30.40,NE,34,0.0,8.0,44,0.00,,,0.00,weatherlink.com 1.10,2013-09-17 18:19:00,
2013-09-17 14:36:00,62.1,37.0,30.40,NNW,333,2.0,5.0,40,0.00,,,0.00,weatherlink.com 1.10,2013-09-17 18:36:00,
2013-09-17 14:55:00,61.5,36.0,30.39,ESE,114,1.0,7.0,38,0.00,,,0.00,weatherlink.com 1.10,2013-09-17 18:55:00,
2013-09-17 15:12:00,61.6,35.0,30.39,SSE,151,3.0,6.0,37,0.00,,,0.00,weatherlink.com 1.10,2013-09-17 19:12:00,
2013-09-17 15:30:00,61.9,37.0,30.39,SE,124,2.0,7.0,39,0.00,,,0.00,weatherlink.com 1.10,2013-09-17 19:30:00,
2013-09-17 15:48:00,61.7,36.0,30.38,NNE,20,1.0,7.0,39,0.00,,,0.00,weatherlink.com 1.10,2013-09-17 19:48:00,
2013-09-17 16:06:00,62.8,37.0,30.38,NE,56,0.0,4.0,38,0.00,,,0.00,weatherlink.com 1.10,2013-09-17 20:06:00,
2013-09-17 16:24:00,62.9,36.0,30.37,NE,53,1.0,6.0,37,0.00,,,0.00,weatherlink.com 1.10,2013-09-17 20:24:00,
2013-09-17 16:41:00,62.5,37.0,30.36,East,98,0.0,5.0,38,0.00,,,0.00,weatherlink.com 1.10,2013-09-17 20:41:00,
2013-09-17 16:59:00,62.6,37.0,30.36,SE,124,2.0,4.0,39,0.00,,,0.00,weatherlink.com 1.10,2013-09-17 20:59:00,
2013-09-17 17:17:00,63.1,37.0,30.36,NE,50,0.0,4.0,38,0.00,,,0.00,weatherlink.com 1.10,2013-09-17 21:17:00,
2013-09-17 17:35:00,61.5,37.0,30.36,ESE,115,1.0,7.0,40,0.00,,,0.00,weatherlink.com 1.10,2013-09-17 21:35:00,
2013-09-17 17:52:00,61.2,39.0,30.36,ESE,116,0.0,5.0,43,0.00,,,0.00,weatherlink.com 1.10,2013-09-17 21:52:00,